Time;durP1;ratioP1;P1;durP2;ratioP2;P2;SDS_P1;SDS_P2;PMS_P1;PMS_P2;Temp;Humidity;BMP_temperature;BMP_pressure;BME280_temperature;BME280_humidity;BME280_pressure;Samples;Min_cycle;Max_cycle;Signal;HPM_P1;HPM_P2
2023/10/04 00:03:33;;;;;;;1.90;0.70;;;;;;;17.37;96.37;100031.58;667688;1264;139518;-78
2023/10/04 00:18:37;;;;;;;5.50;1.00;;;;;;;17.39;95.80;100076.16;667646;1264;139557;-78
2023/10/04 00:33:42;;;;;;;5.10;1.50;;;;;;;17.31;95.34;100100.77;669875;1263;139300;-78
2023/10/04 00:48:46;;;;;;;5.80;1.60;;;;;;;17.16;96.08;100129.02;671521;1261;139523;-77
2023/10/04 01:03:50;;;;;;;3.60;1.60;;;;;;;17.03;95.05;100170.95;668274;1264;138682;-77
2023/10/04 01:18:54;;;;;;;6.60;1.40;;;;;;;16.81;96.13;100188.91;667593;1267;139618;-77
2023/10/04 01:33:58;;;;;;;4.00;1.40;;;;;;;16.82;94.02;100207.23;667721;1259;139420;-77
2023/10/04 01:49:01;;;;;;;5.00;1.60;;;;;;;16.65;93.79;100210.39;667465;1275;138680;-77
2023/10/04 02:04:05;;;;;;;3.00;1.20;;;;;;;16.40;95.03;100226.14;667724;1264;139178;-77
2023/10/04 02:19:09;;;;;;;2.80;1.50;;;;;;;16.30;94.53;100247.19;667640;1264;139720;-77
2023/10/04 02:34:14;;;;;;;3.70;1.30;;;;;;;16.31;94.20;100283.61;668056;1262;139231;-77
2023/10/04 02:49:18;;;;;;;3.70;1.40;;;;;;;16.18;93.34;100300.04;667665;1264;138893;-77
2023/10/04 03:04:22;;;;;;;3.70;1.70;;;;;;;15.89;94.95;100316.45;668037;1263;139076;-77
2023/10/04 03:19:26;;;;;;;4.20;1.80;;;;;;;15.89;94.47;100340.77;668599;1264;139910;-77
2023/10/04 03:34:30;;;;;;;5.30;1.50;;;;;;;15.95;94.23;100371.24;667759;1260;139188;-77
2023/10/04 03:49:34;;;;;;;8.10;2.70;;;;;;;15.93;93.72;100390.48;667711;1275;139511;-77
2023/10/04 04:04:37;;;;;;;4.60;2.90;;;;;;;15.92;92.54;100387.67;667865;1262;139971;-78
2023/10/04 04:19:41;;;;;;;10.70;3.70;;;;;;;15.66;92.94;100396.70;667880;1263;138903;-77
2023/10/04 04:34:45;;;;;;;8.50;3.80;;;;;;;15.38;94.79;100407.80;669027;1263;139049;-77
2023/10/04 04:49:48;;;;;;;7.70;3.50;;;;;;;15.48;95.57;100425.55;667942;1264;139346;-77
2023/10/04 05:04:52;;;;;;;9.10;3.60;;;;;;;15.51;95.78;100445.74;667976;1264;138901;-78
2023/10/04 05:19:56;;;;;;;10.20;3.80;;;;;;;15.66;96.42;100458.69;668218;1263;139693;-80
2023/10/04 05:34:59;;;;;;;6.20;2.70;;;;;;;15.81;95.42;100473.91;673050;1264;138724;-76
2023/10/04 05:50:22;;;;;;;10.30;3.10;;;;;;;15.84;94.80;100473.56;669290;1264;139073;-77
2023/10/04 06:05:27;;;;;;;11.60;2.80;;;;;;;16.22;93.10;100508.38;672454;1265;139601;-79
2023/10/04 06:20:36;;;;;;;7.90;2.80;;;;;;;16.31;91.65;100527.29;668338;1259;138790;-79
2023/10/04 06:35:43;;;;;;;12.20;3.50;;;;;;;17.16;88.55;100546.61;668166;1264;138848;-79
2023/10/04 06:50:49;;;;;;;9.50;3.40;;;;;;;16.86;87.47;100557.52;675100;1263;139967;-78
2023/10/04 07:05:53;;;;;;;10.30;2.90;;;;;;;17.79;85.26;100568.17;672932;1265;139376;-77
2023/10/04 07:20:56;;;;;;;8.90;3.00;;;;;;;18.59;79.05;100587.31;669956;1263;140530;-76
2023/10/04 07:35:59;;;;;;;10.50;2.70;;;;;;;17.33;83.18;100609.42;668409;1263;140137;-77
2023/10/04 07:51:03;;;;;;;7.00;2.80;;;;;;;16.93;85.87;100625.08;668134;1265;139151;-77
2023/10/04 08:06:09;;;;;;;7.40;2.50;;;;;;;16.99;86.18;100641.58;668349;1263;139326;-77
2023/10/04 08:21:15;;;;;;;6.80;2.40;;;;;;;17.11;86.48;100643.66;667579;1264;138635;-76
2023/10/04 08:36:19;;;;;;;6.50;2.40;;;;;;;17.41;84.49;100670.27;667440;1264;140838;-77
2023/10/04 08:51:39;;;;;;;9.40;2.60;;;;;;;17.50;83.39;100677.90;667672;1265;139830;-77
2023/10/04 09:06:44;;;;;;;20.40;11.70;;;;;;;17.80;81.99;100677.92;668068;1260;138813;-77
2023/10/04 09:21:51;;;;;;;10.20;3.40;;;;;;;17.66;81.91;100690.27;667975;1264;139691;-76
2023/10/04 09:36:56;;;;;;;7.00;3.40;;;;;;;17.54;82.53;100703.45;669184;1263;139731;-76
2023/10/04 09:52:12;;;;;;;7.50;3.20;;;;;;;17.35;83.78;100716.02;668074;1261;139238;-76
2023/10/04 10:07:20;;;;;;;7.20;2.80;;;;;;;17.39;84.19;100721.71;668175;1264;138947;-77
2023/10/04 10:22:24;;;;;;;4.40;2.50;;;;;;;18.21;81.72;100715.60;667891;1262;138789;-77
2023/10/04 10:37:29;;;;;;;13.70;6.50;;;;;;;19.19;78.13;100729.70;667703;1266;138962;-77
2023/10/04 10:52:34;;;;;;;8.40;3.90;;;;;;;19.54;75.74;100721.98;667449;1262;139853;-77
2023/10/04 11:07:38;;;;;;;8.60;3.60;;;;;;;18.96;76.18;100723.69;667393;1265;139601;-77
2023/10/04 11:22:44;;;;;;;8.20;4.10;;;;;;;18.54;76.98;100730.68;672564;1265;138677;-77
2023/10/04 11:37:49;;;;;;;6.30;2.70;;;;;;;18.30;80.03;100721.70;671599;1264;140513;-78
2023/10/04 11:52:56;;;;;;;7.70;3.30;;;;;;;18.27;79.69;100718.17;668147;1265;139317;-77
2023/10/04 12:07:59;;;;;;;10.20;3.90;;;;;;;18.20;78.79;100717.54;667427;1264;139340;-77
2023/10/04 12:23:03;;;;;;;6.20;3.30;;;;;;;18.34;78.68;100713.85;667581;1269;140345;-77
2023/10/04 12:38:08;;;;;;;8.00;3.50;;;;;;;18.88;77.95;100702.52;667439;1265;138933;-77
2023/10/04 12:53:14;;;;;;;12.20;3.30;;;;;;;18.95;76.66;100702.94;668158;1262;138553;-77
2023/10/04 13:08:20;;;;;;;8.00;3.00;;;;;;;18.45;79.08;100729.56;667841;1265;138943;-77
2023/10/04 13:33:18;;;;;;;8.30;3.70;;;;;;;16.90;87.55;100736.53;649114;1309;544948;-77
2023/10/04 13:48:24;;;;;;;10.40;3.90;;;;;;;17.42;90.80;100730.52;663323;1273;139271;-77
2023/10/04 14:03:28;;;;;;;11.00;4.40;;;;;;;17.48;93.54;100734.89;663367;1272;138636;-77
2023/10/04 14:18:31;;;;;;;10.90;5.10;;;;;;;17.38;94.94;100748.01;663517;1269;139172;-77
2023/10/04 14:33:35;;;;;;;10.70;4.20;;;;;;;17.39;93.83;100754.11;667321;1266;138695;-76
2023/10/04 14:48:38;;;;;;;11.20;7.10;;;;;;;16.49;96.93;100768.98;667585;1265;141585;-77
2023/10/04 15:03:43;;;;;;;10.10;5.00;;;;;;;16.00;97.98;100787.79;667570;1266;139915;-77
2023/10/04 15:18:46;;;;;;;6.80;3.20;;;;;;;15.93;99.27;100790.29;667706;1274;139514;-79
2023/10/04 15:33:51;;;;;;;10.70;4.80;;;;;;;15.84;100.00;100785.37;667489;1266;138828;-77
2023/10/04 15:48:55;;;;;;;12.00;5.70;;;;;;;15.80;100.00;100804.08;666971;1266;139379;-77
2023/10/04 16:03:58;;;;;;;17.60;7.40;;;;;;;15.69;100.00;100818.65;667225;1266;139582;-77
2023/10/04 16:19:02;;;;;;;45.50;22.60;;;;;;;15.74;99.70;100834.45;667981;1263;139448;-76
2023/10/04 16:34:06;;;;;;;24.70;8.20;;;;;;;15.50;98.02;100853.51;668209;1259;139042;-76
2023/10/04 16:49:10;;;;;;;13.80;7.80;;;;;;;15.42;96.06;100867.45;670248;1265;139755;-77
2023/10/04 17:04:14;;;;;;;19.50;7.00;;;;;;;15.73;91.74;100881.85;668093;1260;139677;-78
2023/10/04 17:19:17;;;;;;;13.00;5.90;;;;;;;15.55;91.17;100887.59;668147;1269;139428;-78
2023/10/04 17:34:21;;;;;;;35.30;13.30;;;;;;;15.22;91.70;100898.19;668635;1263;138977;-78
2023/10/04 17:49:25;;;;;;;22.30;8.00;;;;;;;15.01;92.21;100901.80;667983;1263;138716;-78
2023/10/04 18:04:31;;;;;;;14.50;6.60;;;;;;;14.91;93.54;100910.67;668257;1271;138722;-78
2023/10/04 18:19:34;;;;;;;11.00;5.20;;;;;;;14.82;93.66;100904.67;667909;1263;139425;-78
2023/10/04 18:34:38;;;;;;;234.30;73.60;;;;;;;14.62;94.79;100904.67;668606;1265;139086;-78
2023/10/04 18:49:41;;;;;;;21.30;8.70;;;;;;;14.51;95.81;100911.49;669341;1266;139613;-79
2023/10/04 19:04:45;;;;;;;53.80;20.20;;;;;;;14.45;95.51;100921.50;682318;1263;138682;-79
2023/10/04 19:20:11;;;;;;;55.30;20.30;;;;;;;14.29;97.36;100922.83;682269;1263;138785;-77
2023/10/04 19:35:16;;;;;;;43.50;16.50;;;;;;;14.18;98.59;100914.89;682305;1264;138729;-79
2023/10/04 19:50:20;;;;;;;27.00;10.90;;;;;;;14.06;99.42;100921.08;682183;1263;140067;-80
2023/10/04 20:05:34;;;;;;;13.00;7.00;;;;;;;13.99;99.62;100926.48;682154;1263;139541;-78
2023/10/04 20:20:38;;;;;;;15.00;6.10;;;;;;;14.08;99.89;100923.02;681993;1261;138810;-78
2023/10/04 20:35:41;;;;;;;14.30;6.50;;;;;;;14.15;99.77;100912.70;682334;1264;139344;-79
2023/10/04 20:50:45;;;;;;;10.60;5.20;;;;;;;14.27;99.21;100917.36;682385;1264;140171;-79
2023/10/04 21:05:49;;;;;;;13.80;4.30;;;;;;;14.24;99.63;100906.07;682402;1260;138870;-79
2023/10/04 21:20:56;;;;;;;11.10;3.70;;;;;;;14.22;99.91;100901.13;682648;1263;139496;-79
2023/10/04 21:36:07;;;;;;;10.60;4.70;;;;;;;14.23;99.66;100903.70;682427;1260;139802;-78
2023/10/04 21:51:25;;;;;;;12.90;4.40;;;;;;;14.21;99.36;100888.98;682465;1263;138448;-78
2023/10/04 22:06:29;;;;;;;132.60;50.10;;;;;;;14.15;99.02;100878.39;683707;1260;138721;-78
2023/10/04 22:21:33;;;;;;;24.40;12.50;;;;;;;14.12;99.60;100870.92;684544;1256;138828;-77
2023/10/04 22:37:34;;;;;;;20.40;11.60;;;;;;;14.16;99.90;100856.98;656289;1299;545141;-78
2023/10/04 22:52:39;;;;;;;12.70;6.30;;;;;;;14.10;100.00;100845.64;663812;1276;138532;-77
2023/10/04 23:07:43;;;;;;;11.20;4.70;;;;;;;14.09;100.00;100824.48;664196;1286;138868;-78
2023/10/04 23:22:47;;;;;;;10.80;5.60;;;;;;;14.05;100.00;100807.08;663870;1282;138644;-78
2023/10/04 23:37:57;;;;;;;11.10;5.00;;;;;;;14.09;100.00;100791.20;668711;1262;140013;-78
2023/10/04 23:53:01;;;;;;;12.90;5.90;;;;;;;14.10;100.00;100781.06;667909;1267;141569;-78
